createdAt,value
2019-01-31T00:02:25.745Z,22.23
2019-01-31T00:05:16.607Z,21.60
2019-01-31T00:08:16.226Z,22.70
2019-01-31T00:11:01.739Z,21.97
2019-01-31T00:14:18.681Z,22.43
2019-01-31T00:17:00.910Z,21.33
2019-01-31T00:19:43.083Z,22.20
2019-01-31T00:23:03.424Z,22.70
2019-01-31T00:26:08.333Z,23.93
2019-01-31T00:28:50.465Z,25.40
2019-01-31T00:31:53.294Z,24.13
2019-01-31T00:34:53.547Z,24.13
2019-01-31T00:38:21.603Z,24.23
2019-01-31T00:41:12.268Z,24.60
2019-01-31T00:44:00.592Z,26.73
2019-01-31T00:46:48.736Z,25.37
2019-01-31T00:49:45.757Z,24.73
2019-01-31T00:52:28.103Z,25.23
2019-01-31T00:55:19.380Z,25.33
2019-01-31T00:58:22.809Z,27.20
2019-01-31T01:01:20.285Z,26.83
2019-01-31T01:04:19.437Z,26.33
2019-01-31T01:07:27.558Z,27.60
2019-01-31T01:10:12.390Z,27.47
2019-01-31T01:13:03.540Z,25.80
2019-01-31T01:15:54.543Z,29.60
2019-01-31T01:18:33.798Z,28.40
2019-01-31T01:21:15.983Z,28.60
2019-01-31T01:24:01.539Z,27.80
2019-01-31T01:26:49.685Z,28.70
2019-01-31T01:29:29.218Z,28.57
2019-01-31T01:32:23.213Z,28.23
2019-01-31T01:35:14.172Z,28.87
2019-01-31T01:37:53.310Z,29.67
2019-01-31T01:40:50.804Z,30.10
2019-01-31T01:43:48.022Z,29.20
2019-01-31T01:46:35.696Z,28.03
2019-01-31T01:49:17.927Z,28.30
2019-01-31T01:52:11.360Z,27.13
2019-01-31T01:55:12.564Z,30.13
2019-01-31T01:58:23.741Z,30.87
2019-01-31T02:01:02.833Z,30.10
2019-01-31T02:03:45.405Z,32.37
2019-01-31T02:06:24.726Z,31.50
2019-01-31T02:09:30.198Z,30.43
2019-01-31T02:12:16.321Z,30.50
2019-01-31T02:15:07.530Z,32.40
2019-01-31T02:18:11.069Z,31.67
2019-01-31T02:21:15.954Z,31.20
2019-01-31T02:24:16.461Z,31.57
2019-01-31T02:27:18.773Z,30.70
2019-01-31T02:30:15.691Z,34.00
2019-01-31T02:32:52.247Z,31.63
2019-01-31T02:35:50.015Z,32.77
2019-01-31T02:38:46.100Z,32.20
2019-01-31T02:41:22.670Z,33.40
2019-01-31T02:44:13.973Z,31.87
2019-01-31T02:47:25.199Z,31.80
2019-01-31T02:50:13.595Z,32.60
2019-01-31T02:53:22.894Z,32.57
2019-01-31T02:55:59.741Z,33.73
2019-01-31T02:58:38.877Z,32.93
2019-01-31T03:01:18.058Z,35.67
2019-01-31T03:04:12.446Z,32.77
2019-01-31T03:06:57.504Z,32.57
2019-01-31T03:09:54.655Z,34.60
2019-01-31T03:12:23.708Z,35.93
2019-01-31T03:15:00.325Z,33.50
2019-01-31T03:17:45.192Z,34.47
2019-01-31T03:20:41.088Z,34.63
2019-01-31T03:23:32.155Z,34.20
2019-01-31T03:26:23.292Z,33.27
2019-01-31T03:29:08.671Z,35.27
2019-01-31T03:32:09.627Z,36.57
2019-01-31T03:34:51.926Z,34.60
2019-01-31T03:38:04.214Z,36.90
2019-01-31T03:40:52.487Z,35.40
2019-01-31T03:43:47.386Z,36.70
2019-01-31T03:46:56.546Z,35.50
2019-01-31T03:49:59.845Z,34.87
2019-01-31T03:52:52.855Z,34.53
2019-01-31T03:55:29.420Z,34.73
2019-01-31T03:58:08.403Z,36.10
2019-01-31T04:01:19.085Z,36.50
2019-01-31T04:03:55.663Z,35.83
2019-01-31T04:06:27.334Z,37.37
2019-01-31T04:08:59.038Z,35.60
2019-01-31T04:11:30.717Z,36.63
2019-01-31T04:14:02.395Z,37.50
2019-01-31T04:16:34.266Z,37.53
2019-01-31T04:19:06.277Z,36.57
2019-01-31T04:21:37.976Z,36.83
2019-01-31T04:24:09.716Z,37.40
2019-01-31T04:26:41.492Z,37.57
2019-01-31T04:29:13.167Z,37.63
2019-01-31T04:31:45.044Z,35.13
2019-01-31T04:34:16.720Z,37.63
2019-01-31T04:36:48.475Z,36.83
2019-01-31T04:39:20.168Z,37.07
2019-01-31T04:41:51.838Z,38.00
2019-01-31T04:44:23.516Z,36.90
2019-01-31T04:46:55.184Z,37.93
2019-01-31T04:49:26.866Z,38.30
2019-01-31T04:51:58.529Z,39.80
2019-01-31T04:54:30.220Z,37.63
2019-01-31T04:57:02.157Z,38.83
2019-01-31T04:59:33.861Z,39.33
2019-01-31T05:02:05.902Z,36.83
2019-01-31T05:04:37.964Z,39.20
2019-01-31T05:07:09.642Z,36.67
2019-01-31T05:09:41.318Z,35.83
2019-01-31T05:12:13.072Z,36.60
2019-01-31T05:14:45.128Z,37.93
2019-01-31T05:17:16.870Z,37.07
2019-01-31T05:19:48.840Z,37.87
2019-01-31T05:22:20.885Z,40.30
2019-01-31T05:24:52.736Z,39.87
2019-01-31T05:27:24.702Z,37.70
2019-01-31T05:29:59.696Z,37.33
2019-01-31T05:32:33.992Z,38.70
2019-01-31T05:35:08.630Z,39.80
2019-01-31T05:37:40.406Z,37.80
2019-01-31T05:40:14.941Z,39.27
2019-01-31T05:42:46.631Z,39.57
2019-01-31T05:45:18.564Z,39.67
2019-01-31T05:47:50.531Z,38.83
2019-01-31T05:50:22.478Z,37.70
2019-01-31T05:52:54.499Z,38.50
2019-01-31T05:55:26.645Z,39.70
2019-01-31T05:57:59.202Z,39.07
2019-01-31T06:00:32.791Z,38.07
2019-01-31T06:03:04.774Z,39.17
2019-01-31T06:05:36.921Z,40.67
2019-01-31T06:08:08.608Z,38.07
2019-01-31T06:10:40.284Z,38.40
2019-01-31T06:13:12.029Z,39.43
2019-01-31T06:15:43.705Z,40.00
2019-01-31T06:18:15.383Z,39.87
2019-01-31T06:20:47.064Z,39.07
2019-01-31T06:23:20.526Z,37.23
2019-01-31T06:25:52.192Z,39.13
2019-01-31T06:28:23.870Z,39.20
2019-01-31T06:30:55.547Z,41.77
2019-01-31T06:33:28.484Z,40.93
2019-01-31T06:36:00.457Z,40.33
2019-01-31T06:38:32.160Z,38.53
2019-01-31T06:41:03.907Z,39.07
2019-01-31T06:43:35.755Z,38.00
2019-01-31T06:46:07.431Z,40.47
2019-01-31T06:48:39.128Z,38.27
2019-01-31T06:51:11.066Z,39.53
2019-01-31T06:53:42.748Z,39.70
2019-01-31T06:56:14.800Z,40.43
2019-01-31T06:58:46.476Z,38.70
2019-01-31T07:01:18.525Z,39.37
2019-01-31T07:03:50.593Z,39.33
2019-01-31T07:06:22.655Z,40.27
2019-01-31T07:08:54.324Z,41.73
2019-01-31T07:11:30.074Z,38.63
2019-01-31T07:13:59.363Z,39.30
2019-01-31T07:16:31.051Z,42.73
2019-01-31T07:19:02.724Z,41.23
2019-01-31T07:21:34.416Z,41.17
2019-01-31T07:24:06.096Z,38.23
2019-01-31T07:26:37.776Z,39.97
2019-01-31T07:29:09.813Z,36.93
2019-01-31T07:31:41.557Z,39.80
2019-01-31T07:34:13.254Z,39.20
2019-01-31T07:36:45.057Z,38.23
2019-01-31T07:39:17.262Z,38.13
2019-01-31T07:41:49.304Z,39.50
2019-01-31T07:44:20.985Z,38.77
2019-01-31T07:46:52.665Z,40.57
2019-01-31T07:49:24.767Z,39.30
2019-01-31T07:51:57.005Z,38.67
2019-01-31T07:54:28.811Z,38.87
2019-01-31T07:57:00.490Z,37.67
2019-01-31T07:59:32.168Z,37.67
2019-01-31T08:02:03.845Z,36.97
2019-01-31T08:04:35.528Z,38.70
2019-01-31T08:07:07.228Z,39.10
2019-01-31T08:09:39.059Z,37.67
2019-01-31T08:12:10.744Z,35.90
2019-01-31T08:14:42.442Z,37.50
2019-01-31T08:17:14.110Z,36.33
2019-01-31T08:19:45.822Z,37.70
2019-01-31T08:22:17.500Z,36.77
2019-01-31T08:24:49.340Z,35.87
2019-01-31T08:27:21.008Z,37.70
2019-01-31T08:29:52.709Z,36.70
2019-01-31T08:32:24.633Z,37.60
2019-01-31T08:34:56.318Z,35.87
2019-01-31T08:37:27.989Z,35.77
2019-01-31T08:39:59.697Z,36.40
2019-01-31T08:42:31.408Z,35.93
2019-01-31T08:45:03.345Z,36.70
2019-01-31T08:47:35.080Z,33.63
2019-01-31T08:50:12.152Z,35.23
2019-01-31T08:52:43.821Z,35.57
2019-01-31T08:55:15.749Z,33.77
2019-01-31T08:57:47.746Z,35.03
2019-01-31T09:00:23.301Z,35.37
2019-01-31T09:02:54.986Z,34.37
2019-01-31T09:05:26.720Z,34.07
2019-01-31T09:07:58.659Z,33.63
2019-01-31T09:10:37.367Z,33.50
2019-01-31T09:13:11.322Z,34.17
2019-01-31T09:15:43.267Z,32.60
2019-01-31T09:18:15.407Z,35.77
2019-01-31T09:20:57.558Z,36.13
2019-01-31T09:23:55.502Z,35.03
2019-01-31T09:26:50.972Z,35.10
2019-01-31T09:29:30.071Z,33.30
2019-01-31T09:32:12.565Z,35.93
2019-01-31T09:35:06.866Z,34.13
2019-01-31T09:38:02.691Z,34.23
2019-01-31T09:40:45.126Z,35.13
2019-01-31T09:43:47.062Z,34.33
2019-01-31T09:46:44.513Z,34.13
2019-01-31T09:50:01.710Z,34.60
2019-01-31T09:52:44.112Z,35.73
2019-01-31T09:55:23.379Z,34.23
2019-01-31T09:58:27.869Z,35.87
2019-01-31T10:01:37.818Z,34.47
2019-01-31T10:04:44.018Z,37.43
2019-01-31T10:07:56.712Z,33.77
2019-01-31T10:11:00.325Z,33.43
2019-01-31T10:14:00.656Z,35.00
2019-01-31T10:16:56.066Z,33.73
2019-01-31T10:19:35.777Z,33.80
2019-01-31T10:22:12.486Z,35.10
2019-01-31T10:25:12.903Z,33.93
2019-01-31T10:28:04.128Z,35.00
2019-01-31T10:30:56.989Z,34.07
2019-01-31T10:34:00.064Z,34.30
2019-01-31T10:36:51.789Z,35.57
2019-01-31T10:39:45.930Z,33.93
2019-01-31T10:42:37.051Z,32.10
2019-01-31T10:45:31.202Z,34.03
2019-01-31T10:48:22.376Z,33.07
2019-01-31T10:51:13.228Z,33.87
2019-01-31T10:54:13.705Z,34.20
2019-01-31T10:57:11.227Z,33.93
2019-01-31T11:00:18.626Z,34.30
2019-01-31T11:03:20.816Z,33.53
2019-01-31T11:06:28.588Z,31.73
2019-01-31T11:09:41.541Z,32.93
2019-01-31T11:12:29.297Z,33.33
2019-01-31T11:15:35.508Z,32.87
2019-01-31T11:18:26.883Z,31.97
2019-01-31T11:21:23.628Z,32.47
2019-01-31T11:24:05.910Z,33.00
2019-01-31T11:26:57.361Z,33.27
2019-01-31T11:29:42.507Z,33.07
2019-01-31T11:32:24.593Z,32.17
2019-01-31T11:35:01.193Z,32.13
2019-01-31T11:37:52.000Z,30.77
2019-01-31T11:40:49.427Z,33.70
2019-01-31T11:43:31.885Z,31.17
2019-01-31T11:46:28.784Z,31.40
2019-01-31T11:49:13.964Z,32.33
2019-01-31T11:52:16.259Z,29.83
2019-01-31T11:55:13.484Z,30.10
2019-01-31T11:58:16.646Z,30.23
2019-01-31T12:00:49.425Z,30.00
2019-01-31T12:03:21.397Z,29.43
2019-01-31T12:05:53.068Z,27.80
2019-01-31T12:08:24.807Z,29.90
2019-01-31T12:10:57.831Z,31.60
2019-01-31T12:13:29.514Z,30.80
2019-01-31T12:16:01.311Z,32.17
2019-01-31T12:18:32.978Z,30.70
2019-01-31T12:21:04.748Z,31.27
2019-01-31T12:23:36.422Z,28.97
2019-01-31T12:26:08.104Z,31.40
2019-01-31T12:28:39.805Z,31.37
2019-01-31T12:31:12.654Z,31.40
2019-01-31T12:33:45.314Z,28.27
2019-01-31T12:36:17.710Z,30.17
2019-01-31T12:38:49.513Z,31.23
2019-01-31T12:41:21.284Z,28.90
2019-01-31T12:43:52.964Z,30.40
2019-01-31T12:46:24.639Z,29.23
2019-01-31T12:48:56.332Z,29.40
2019-01-31T12:51:28.015Z,28.27
2019-01-31T12:53:59.779Z,28.13
2019-01-31T12:56:31.550Z,30.43
2019-01-31T12:59:03.303Z,29.70
2019-01-31T13:01:34.992Z,28.37
2019-01-31T13:04:06.679Z,29.10
2019-01-31T13:06:38.364Z,28.00
2019-01-31T13:09:10.371Z,27.43
2019-01-31T13:11:42.046Z,26.63
2019-01-31T13:14:13.725Z,28.20
2019-01-31T13:16:45.480Z,26.73
2019-01-31T13:19:17.164Z,27.37
2019-01-31T13:21:48.831Z,26.57
2019-01-31T13:24:20.514Z,24.37
2019-01-31T13:26:52.322Z,24.47
2019-01-31T13:29:24.086Z,23.50
2019-01-31T13:31:55.783Z,23.07
2019-01-31T13:34:27.461Z,24.30
2019-01-31T13:36:59.176Z,23.50
2019-01-31T13:39:30.853Z,21.93
2019-01-31T13:42:02.564Z,22.03
2019-01-31T13:44:34.299Z,20.83
2019-01-31T13:47:06.230Z,20.40
2019-01-31T13:49:37.922Z,19.83
2019-01-31T13:52:11.201Z,20.23
2019-01-31T13:54:43.228Z,20.73
2019-01-31T13:57:14.896Z,20.00
2019-01-31T13:59:46.939Z,19.97
2019-01-31T14:02:18.626Z,18.50
2019-01-31T14:04:50.331Z,19.93
2019-01-31T14:07:22.038Z,21.43
2019-01-31T14:09:53.740Z,19.87
2019-01-31T14:12:25.540Z,20.83
2019-01-31T14:14:57.220Z,17.93
2019-01-31T14:17:29.398Z,19.37
2019-01-31T14:20:01.072Z,18.43
2019-01-31T14:22:42.836Z,19.23
2019-01-31T14:25:07.660Z,19.87
2019-01-31T14:27:39.353Z,18.63
2019-01-31T14:30:30.667Z,18.53
2019-01-31T14:33:02.733Z,18.37
2019-01-31T14:35:34.411Z,18.07
2019-01-31T14:38:06.880Z,17.30
2019-01-31T14:40:38.624Z,20.20
2019-01-31T14:43:10.338Z,18.50
2019-01-31T14:45:42.007Z,18.23
2019-01-31T14:48:13.684Z,17.73
2019-01-31T14:50:45.377Z,17.47
2019-01-31T14:53:17.040Z,17.50
2019-01-31T14:55:48.792Z,17.47
2019-01-31T14:58:20.543Z,17.47
2019-01-31T15:00:52.274Z,17.23
2019-01-31T15:03:23.943Z,18.83
2019-01-31T15:05:55.995Z,19.23
2019-01-31T15:08:27.671Z,19.10
2019-01-31T15:10:59.351Z,20.10
2019-01-31T15:13:31.448Z,19.77
2019-01-31T15:16:03.226Z,20.43
2019-01-31T15:18:34.880Z,19.80
2019-01-31T15:21:06.686Z,18.60
2019-01-31T15:23:38.356Z,17.93
2019-01-31T15:26:10.770Z,20.13
2019-01-31T15:28:42.440Z,18.70
2019-01-31T15:31:14.127Z,18.93
2019-01-31T15:33:46.204Z,20.00
2019-01-31T15:36:17.873Z,21.53
2019-01-31T15:38:49.590Z,22.67
2019-01-31T15:41:21.332Z,21.57
2019-01-31T15:43:53.020Z,20.77
2019-01-31T15:46:24.764Z,22.63
2019-01-31T15:48:56.449Z,22.00
2019-01-31T15:51:28.244Z,23.97
2019-01-31T15:53:59.880Z,25.63
2019-01-31T15:56:31.684Z,26.90
2019-01-31T15:59:03.694Z,28.23
2019-01-31T16:01:35.396Z,27.00
2019-01-31T16:04:07.062Z,28.77
2019-01-31T16:06:38.778Z,28.67
2019-01-31T16:09:10.720Z,31.90
2019-01-31T16:11:42.472Z,30.70
2019-01-31T16:14:14.212Z,29.20
2019-01-31T16:16:46.317Z,32.87
2019-01-31T16:19:18.285Z,29.72
2019-01-31T16:21:50.332Z,33.27
2019-01-31T16:24:22.010Z,33.67
2019-01-31T16:26:53.675Z,34.47
2019-01-31T16:29:25.375Z,34.73
2019-01-31T16:31:57.040Z,36.10
2019-01-31T16:34:29.034Z,35.13
2019-01-31T16:37:00.767Z,34.33
2019-01-31T16:39:32.454Z,36.63
2019-01-31T16:42:04.503Z,36.83
2019-01-31T16:44:36.172Z,35.93
2019-01-31T16:47:07.860Z,36.03
2019-01-31T16:49:39.557Z,37.77
2019-01-31T16:52:11.319Z,37.43
2019-01-31T16:54:44.065Z,34.63
2019-01-31T16:57:15.731Z,37.13
2019-01-31T16:59:47.738Z,36.73
2019-01-31T17:02:19.405Z,36.80
2019-01-31T17:04:51.206Z,35.53
2019-01-31T17:07:22.886Z,36.17
2019-01-31T17:09:54.577Z,35.10
2019-01-31T17:12:26.245Z,38.47
2019-01-31T17:14:57.923Z,37.03
2019-01-31T17:17:29.608Z,36.03
2019-01-31T17:20:01.280Z,37.50
2019-01-31T17:22:32.958Z,37.47
2019-01-31T17:25:08.408Z,39.40
2019-01-31T17:27:40.485Z,38.63
2019-01-31T17:30:21.802Z,41.20
2019-01-31T17:32:54.510Z,38.50
2019-01-31T17:35:26.490Z,37.83
2019-01-31T17:37:58.194Z,40.07
2019-01-31T17:40:37.003Z,39.23
2019-01-31T17:43:08.922Z,38.80
2019-01-31T17:45:40.610Z,39.17
2019-01-31T17:48:14.181Z,40.00
2019-01-31T17:50:45.859Z,41.60
2019-01-31T17:53:17.578Z,44.77
2019-01-31T17:55:49.631Z,42.77
2019-01-31T17:58:21.328Z,43.40
2019-01-31T18:00:54.663Z,41.53
2019-01-31T18:03:26.330Z,41.97
2019-01-31T18:05:58.097Z,43.20
2019-01-31T18:08:29.778Z,43.00
2019-01-31T18:11:01.452Z,45.90
2019-01-31T18:13:33.133Z,45.40
2019-01-31T18:16:04.822Z,46.07
2019-01-31T18:18:36.840Z,46.57
2019-01-31T18:21:08.794Z,48.17
2019-01-31T18:23:40.476Z,46.33
2019-01-31T18:26:12.239Z,47.60
2019-01-31T18:28:43.930Z,46.63
2019-01-31T18:31:15.941Z,46.40
2019-01-31T18:33:47.618Z,48.63
2019-01-31T18:36:19.327Z,48.50
2019-01-31T18:38:51.189Z,50.97
2019-01-31T18:41:22.963Z,48.30
2019-01-31T18:43:54.656Z,49.43
2019-01-31T18:46:26.358Z,49.50
2019-01-31T18:49:01.493Z,47.50
2019-01-31T18:51:33.175Z,48.10
2019-01-31T18:54:04.950Z,48.67
2019-01-31T18:56:36.935Z,51.27
2019-01-31T18:59:08.604Z,51.57
2019-01-31T19:01:40.645Z,49.03
2019-01-31T19:04:12.747Z,49.43
2019-01-31T19:06:44.455Z,50.17
2019-01-31T19:09:16.133Z,48.10
2019-01-31T19:11:47.895Z,49.33
2019-01-31T19:14:19.681Z,49.53
2019-01-31T19:16:51.418Z,49.30
2019-01-31T19:19:23.099Z,52.57
2019-01-31T19:21:54.858Z,50.67
2019-01-31T19:24:26.770Z,52.07
2019-01-31T19:26:58.743Z,49.07
2019-01-31T19:29:30.929Z,49.97
2019-01-31T19:32:02.599Z,50.70
2019-01-31T19:34:34.291Z,51.63
2019-01-31T19:37:06.012Z,51.77
2019-01-31T19:39:37.687Z,51.83
2019-01-31T19:42:09.402Z,51.30
2019-01-31T19:44:42.002Z,52.67
2019-01-31T19:47:14.245Z,51.67
2019-01-31T19:49:45.921Z,49.70
2019-01-31T19:52:17.970Z,49.17
2019-01-31T19:54:49.825Z,50.87
2019-01-31T19:57:21.893Z,49.67
2019-01-31T19:59:54.110Z,51.13
2019-01-31T20:02:25.843Z,52.67
2019-01-31T20:04:57.556Z,51.50
2019-01-31T20:07:29.326Z,53.67
2019-01-31T20:10:01.007Z,50.80
2019-01-31T20:12:34.594Z,52.40
2019-01-31T20:15:10.639Z,52.63
2019-01-31T20:17:42.326Z,50.97
2019-01-31T20:20:21.343Z,52.20
2019-01-31T20:22:55.287Z,51.20
2019-01-31T20:25:27.632Z,51.27
2019-01-31T20:27:59.361Z,53.93
2019-01-31T20:30:33.456Z,52.40
2019-01-31T20:33:06.477Z,50.70
2019-01-31T20:35:38.320Z,53.23
2019-01-31T20:38:09.988Z,52.40
2019-01-31T20:40:42.079Z,51.83
2019-01-31T20:43:13.888Z,51.67
2019-01-31T20:45:45.900Z,55.60
2019-01-31T20:48:18.849Z,52.37
2019-01-31T20:50:50.634Z,52.97
2019-01-31T20:53:22.616Z,51.13
2019-01-31T20:55:54.306Z,51.87
2019-01-31T20:58:26.328Z,51.80
2019-01-31T21:00:58.078Z,53.53
2019-01-31T21:03:30.262Z,54.60
2019-01-31T21:06:03.460Z,54.47
2019-01-31T21:08:36.079Z,53.57
2019-01-31T21:11:08.039Z,54.37
2019-01-31T21:13:39.804Z,53.40
2019-01-31T21:16:11.520Z,54.43
2019-01-31T21:18:43.671Z,53.20
2019-01-31T21:21:15.385Z,54.37
2019-01-31T21:23:47.065Z,54.63
2019-01-31T21:26:18.905Z,54.47
2019-01-31T21:28:51.023Z,55.53
2019-01-31T21:31:23.297Z,51.33
2019-01-31T21:33:54.986Z,51.50
2019-01-31T21:36:26.673Z,53.70
2019-01-31T21:38:58.373Z,54.13
2019-01-31T21:41:30.060Z,53.83
2019-01-31T21:44:01.779Z,55.37
2019-01-31T21:46:33.466Z,52.53
2019-01-31T21:49:05.158Z,53.23
2019-01-31T21:51:36.833Z,54.60
2019-01-31T21:54:08.553Z,54.03
2019-01-31T21:56:40.234Z,53.77
2019-01-31T21:59:11.928Z,54.50
2019-01-31T22:01:43.634Z,53.37
2019-01-31T22:04:15.313Z,52.53
2019-01-31T22:06:47.303Z,55.93
2019-01-31T22:09:18.971Z,54.07
2019-01-31T22:11:50.722Z,56.07
2019-01-31T22:14:22.397Z,54.87
2019-01-31T22:16:54.122Z,51.60
2019-01-31T22:19:25.800Z,53.40
2019-01-31T22:21:57.494Z,54.40
2019-01-31T22:24:29.242Z,54.53
2019-01-31T22:27:00.943Z,54.70
2019-01-31T22:29:32.630Z,52.13
2019-01-31T22:32:04.323Z,53.73
2019-01-31T22:34:36.488Z,53.77
2019-01-31T22:37:08.614Z,51.53
2019-01-31T22:39:40.326Z,53.37
2019-01-31T22:42:12.003Z,51.17
2019-01-31T22:44:43.724Z,52.73
2019-01-31T22:47:25.925Z,52.43
2019-01-31T22:49:49.159Z,53.30
2019-01-31T22:52:20.854Z,54.07
2019-01-31T22:54:52.541Z,51.53
2019-01-31T22:57:24.236Z,53.90
2019-01-31T22:59:55.915Z,54.70
2019-01-31T23:02:28.085Z,53.90
2019-01-31T23:04:59.769Z,54.37
2019-01-31T23:07:31.461Z,52.73
2019-01-31T23:10:03.411Z,52.90
2019-01-31T23:12:35.115Z,53.87
2019-01-31T23:15:10.311Z,51.80
2019-01-31T23:17:42.031Z,53.13
2019-01-31T23:20:16.401Z,54.57
2019-01-31T23:22:48.117Z,55.87
2019-01-31T23:25:19.862Z,53.97
2019-01-31T23:27:51.887Z,56.73
2019-01-31T23:30:24.574Z,55.90
2019-01-31T23:32:56.327Z,54.07
2019-01-31T23:35:28.023Z,54.60
2019-01-31T23:37:59.781Z,53.73
2019-01-31T23:40:31.465Z,52.27
2019-01-31T23:43:03.146Z,53.90
2019-01-31T23:45:34.851Z,55.37
2019-01-31T23:48:06.546Z,55.43
2019-01-31T23:50:38.237Z,53.20
2019-01-31T23:53:09.920Z,54.63
2019-01-31T23:55:41.690Z,54.47
2019-01-31T23:58:13.722Z,56.27
